Welcome to our new website - Welkom op onze vernieuwde website - Bienvenue sur notre nouveau site web - Willkommen auf unserer neuen Website
Check our progress frequently. Prüfen Sie unsere Fortschritte regelmäßig. Consultez notre progression fréquemment. Komt u straks nog eens terug


Regen radar Meer informatie rain snow radar


Bezoek ook deze websites:

Template documentation
and downloads

And another site



We konden geen weer-waarchuwingen ophalen. Ga rechtstreeks naar de Meteoalarm site : www.meteoalarm.eu en controleer daar .

METAR rapporten vliegvelden

   
EHVK - Volkel Rnlafb, Netherlands
Afstand tot: ZW 18 km
Gewijzigd: 20-06-2019 12:05
Grotendeels bewolkt  
Grotendeels bewolkt  
   Wind: ZW 22.2 km/h
Wind: ZW 22.2 km/h
Temperatuur: 19°C
Dauwpunt: 14°C
Vochtigheid: 73%
Barometer: 1011 hPa
Bewolking: Grotendeels bewolkt
Zicht: meer dan 10 km
Bewolking: Gedeeltelijk bewolkt 2200 ft,
Grotendeels bewolkt 2700 ft,
Grotendeels bewolkt 3000 ft
EHVK 201005Z AUTO 23012KT 210V280 9999 SCT022 BKN027 BKN030 19/14 Q1011 WHT 22010KT 9999 SCT022 BKN025
EDLV - Niederrhein, Germany
Afstand tot: ZO 25 km
Gewijzigd: 20-06-2019 11:50
Grotendeels bewolkt  
Grotendeels bewolkt  
   Wind: ZW 20.4 km/h
Wind: ZW 20.4 km/h
Temperatuur: 19°C
Dauwpunt: 14°C
Vochtigheid: 73%
Barometer: 1012 hPa
Bewolking: Grotendeels bewolkt
Zicht: meer dan 10 km
Bewolking: Grotendeels bewolkt 2200 ft
EDLV 200950Z 23011KT 9999 BKN022 19/14 Q1012
EHDL - Deelen Rnlafb, Netherlands
Afstand tot: N 35 km
Gewijzigd: 20-06-2019 11:55
Grotendeels bewolkt  
Grotendeels bewolkt  
   Wind: ZW 25.9 km/h
Wind: ZW 25.9 km/h
Temperatuur: 18°C
Dauwpunt: 13°C
Vochtigheid: 73%
Barometer: 1011 hPa
Bewolking: Grotendeels bewolkt
Zicht: meer dan 10 km
Bewolking: Licht bewolkt 2100 ft,
Grotendeels bewolkt 2400 ft,
Grotendeels bewolkt 2900 ft
EHDL 200955Z AUTO 22014KT 180V300 9999 FEW021 BKN024 BKN029 18/13 Q1011 WHT
EHEH - Eindhoven Rnlafb, Netherlands
Afstand tot: ZW 48 km
Gewijzigd: 20-06-2019 11:59
Grotendeels bewolkt  
Grotendeels bewolkt  
   Wind: WZW 18.5 km/h
Wind: WZW 18.5 km/h
Temperatuur: 19°C
Dauwpunt: 14°C
Vochtigheid: 73%
Barometer: 1012 hPa
Bewolking: Grotendeels bewolkt
Zicht: meer dan 10 km
Bewolking: Licht bewolkt 1900 ft,
Gedeeltelijk bewolkt 2900 ft,
Grotendeels bewolkt 4100 ft
EHEH 200959Z AUTO 24010KT 190V290 9999 FEW019 SCT029 BKN041 19/14 Q1012 BLU 23010KT 9999 SCT020 BKN030 BKN040 TEMPO FEW020CB BKN025
EHGR - Gilze-Rijen Rnla, Netherlands
Afstand tot: WZW 70 km
Gewijzigd: 20-06-2019 12:16
Grotendeels bewolkt  
Grotendeels bewolkt  
   Wind: ZW 16.7 km/h
Wind: ZW 16.7 km/h
Temperatuur: 20°C
Dauwpunt: 14°C
Vochtigheid: 69%
Barometer: 1011 hPa
Bewolking: Grotendeels bewolkt
Zicht: meer dan 10 km
Bewolking: Licht bewolkt 2100 ft,
Gedeeltelijk bewolkt 2600 ft,
Grotendeels bewolkt 3000 ft
EHGR 201016Z AUTO 22009KT 180V260 9999 FEW021 SCT026 BKN030 20/14 Q1011 BLU 23008KT 9999 SCT015 BKN020
EBBL - Kleine-Brogel(Ba, Belgium
Afstand tot: ZZW 71 km
Gewijzigd: 20-06-2019 11:55
Grotendeels bewolkt  
Grotendeels bewolkt  
   Wind: ZW 18.5 km/h
Wind: ZW 18.5 km/h
Temperatuur: 19°C
Dauwpunt: 15°C
Vochtigheid: 78%
Barometer: 1012 hPa
Bewolking: Grotendeels bewolkt
Zicht: meer dan 10 km
Bewolking: Gedeeltelijk bewolkt 2500 ft,
Gedeeltelijk bewolkt 3000 ft,
Grotendeels bewolkt 16000 ft
EBBL 200955Z 22010KT 9999 SCT025 SCT030 BKN160 19/15 Q1012 BLU BLU TEMPO WHT

Script ontwikkeld door  Saratoga-weather.org Aangepast voor de template door  Weerstation Leuven

U vindt ons ook hier:

Het Weer Aktueel

Weather Underground

Benelux Weer Netwerk

AWEKAS